createdAt,value
2023-04-26T00:00:23.872Z,97.00
2023-04-26T00:01:25.421Z,96.61
2023-04-26T00:02:27.087Z,96.60
2023-04-26T00:03:28.835Z,96.43
2023-04-26T00:04:31.363Z,96.54
2023-04-26T00:05:33.077Z,96.34
2023-04-26T00:06:34.677Z,96.29
2023-04-26T00:07:36.327Z,96.86
2023-04-26T00:08:37.891Z,96.95
2023-04-26T00:09:39.471Z,96.96
2023-04-26T00:10:41.012Z,96.40
2023-04-26T00:11:42.632Z,96.36
2023-04-26T00:12:44.197Z,95.75
2023-04-26T00:13:45.742Z,95.67
2023-04-26T00:14:47.449Z,95.83
2023-04-26T00:15:49.168Z,96.12
2023-04-26T00:16:50.799Z,96.06
2023-04-26T00:17:52.453Z,96.09
2023-04-26T00:18:54.265Z,96.26
2023-04-26T00:19:56.238Z,96.39
2023-04-26T00:20:58.014Z,96.19
2023-04-26T00:21:59.609Z,96.28
2023-04-26T00:23:01.160Z,96.22
2023-04-26T00:24:02.785Z,95.68
2023-04-26T00:25:04.752Z,95.28
2023-04-26T00:26:06.331Z,95.02
2023-04-26T00:27:07.868Z,95.15
2023-04-26T00:28:09.425Z,95.20
2023-04-26T00:29:11.019Z,95.31
2023-04-26T00:30:14.740Z,95.00
2023-04-26T00:31:16.856Z,94.97
2023-04-26T00:32:18.469Z,94.80
2023-04-26T00:33:21.692Z,94.77
2023-04-26T00:34:23.335Z,95.05
2023-04-26T00:35:25.156Z,95.03
2023-04-26T00:36:26.688Z,95.17
2023-04-26T00:37:28.230Z,95.54
2023-04-26T00:38:29.845Z,95.47
2023-04-26T00:39:31.630Z,94.45
2023-04-26T00:40:33.174Z,94.08
2023-04-26T00:41:35.014Z,93.95
2023-04-26T00:42:38.242Z,93.88
2023-04-26T00:43:40.242Z,94.41
2023-04-26T00:44:41.812Z,94.38
2023-04-26T00:45:43.435Z,94.99
2023-04-26T00:46:45.903Z,95.28
2023-04-26T00:47:47.487Z,95.38
2023-04-26T00:48:49.117Z,95.41
2023-04-26T00:49:50.812Z,95.95
2023-04-26T00:50:52.546Z,96.42
2023-04-26T00:51:54.416Z,96.19
2023-04-26T00:52:58.005Z,96.09
2023-04-26T00:54:00.012Z,96.88
2023-04-26T00:55:02.482Z,97.13
2023-04-26T00:56:06.927Z,97.42
2023-04-26T00:57:08.743Z,98.12
2023-04-26T00:58:10.705Z,98.38
2023-04-26T00:59:12.354Z,98.91
2023-04-26T01:00:14.470Z,99.61
2023-04-26T01:01:16.070Z,99.92
2023-04-26T01:02:17.764Z,100.00
2023-04-26T01:03:20.106Z,100.00
2023-04-26T01:04:22.039Z,100.00
2023-04-26T01:05:24.496Z,100.00
2023-04-26T01:06:33.099Z,100.00
2023-04-26T01:07:35.991Z,100.00
2023-04-26T01:08:37.643Z,100.00
2023-04-26T01:09:40.431Z,100.00
2023-04-26T01:10:41.995Z,100.00
2023-04-26T01:11:44.617Z,100.00
2023-04-26T01:12:46.388Z,100.00
2023-04-26T01:13:48.630Z,100.00
2023-04-26T01:17:25.175Z,100.00
2023-04-26T01:18:27.049Z,100.00
2023-04-26T01:19:29.191Z,100.00
2023-04-26T01:20:30.815Z,100.00
2023-04-26T01:21:32.415Z,100.00
2023-04-26T01:22:34.829Z,100.00
2023-04-26T01:23:36.400Z,100.00
2023-04-26T01:24:38.750Z,100.00
2023-04-26T01:25:41.233Z,100.00
2023-04-26T01:26:42.852Z,100.00
2023-04-26T01:27:44.600Z,100.00
2023-04-26T01:28:46.427Z,100.00
2023-04-26T01:29:47.998Z,99.47
2023-04-26T01:30:49.887Z,98.96
2023-04-26T01:31:51.565Z,98.96
2023-04-26T01:32:53.122Z,98.65
2023-04-26T01:33:54.712Z,98.44
2023-04-26T01:34:56.422Z,98.08
2023-04-26T01:35:58.056Z,97.93
2023-04-26T01:36:59.901Z,97.78
2023-04-26T01:38:02.988Z,97.92
2023-04-26T01:39:04.820Z,97.46
2023-04-26T01:40:07.236Z,97.43
2023-04-26T01:41:09.128Z,97.45
2023-04-26T01:42:10.717Z,97.31
2023-04-26T01:43:12.480Z,97.32
2023-04-26T01:44:14.106Z,97.42
2023-04-26T01:45:15.678Z,97.30
2023-04-26T01:46:36.238Z,97.20
2023-04-26T01:47:37.928Z,96.81
2023-04-26T01:48:39.543Z,98.97
2023-04-26T01:49:41.116Z,100.00
2023-04-26T01:50:42.691Z,100.00
2023-04-26T01:51:44.304Z,100.00
2023-04-26T01:52:46.162Z,99.54
2023-04-26T01:53:47.751Z,100.00
2023-04-26T01:54:49.323Z,100.00
2023-04-26T01:55:50.953Z,100.00
2023-04-26T01:56:52.543Z,100.00
2023-04-26T01:57:54.144Z,100.00
2023-04-26T01:58:55.762Z,100.00
2023-04-26T01:59:58.219Z,99.27
2023-04-26T02:01:09.011Z,98.76
2023-04-26T02:02:11.989Z,99.70
2023-04-26T02:03:13.975Z,100.00
2023-04-26T02:04:15.659Z,100.00
2023-04-26T02:05:17.248Z,100.00
2023-04-26T02:06:18.833Z,100.00
2023-04-26T02:07:20.457Z,100.00
2023-04-26T02:08:22.187Z,100.00
2023-04-26T02:09:23.764Z,100.00
2023-04-26T02:10:25.385Z,100.00
2023-04-26T02:11:27.066Z,100.00
2023-04-26T02:12:28.715Z,100.00
2023-04-26T02:13:31.408Z,100.00
2023-04-26T02:14:32.970Z,100.00
2023-04-26T02:15:34.520Z,100.00
2023-04-26T02:16:36.433Z,100.00
2023-04-26T02:17:38.734Z,100.00
2023-04-26T02:18:40.307Z,100.00
2023-04-26T02:19:41.884Z,100.00
2023-04-26T02:20:44.877Z,100.00
2023-04-26T02:21:57.782Z,99.99
2023-04-26T02:22:59.407Z,99.96
2023-04-26T02:24:00.985Z,99.59
2023-04-26T02:25:02.758Z,98.79
2023-04-26T02:26:04.818Z,98.50
2023-04-26T02:27:06.468Z,97.93
2023-04-26T02:28:09.586Z,97.85
2023-04-26T02:29:11.170Z,98.10
2023-04-26T02:30:13.182Z,98.22
2023-04-26T02:31:15.460Z,98.58
2023-04-26T02:32:17.403Z,98.42
2023-04-26T02:33:19.061Z,98.60
2023-04-26T02:34:21.386Z,98.56
2023-04-26T02:35:23.300Z,98.46
2023-04-26T02:36:24.928Z,98.76
2023-04-26T02:37:26.563Z,98.59
2023-04-26T02:38:28.229Z,98.36
2023-04-26T02:39:30.064Z,98.21
2023-04-26T02:40:31.787Z,97.72
2023-04-26T02:41:33.583Z,97.51
2023-04-26T02:42:36.082Z,97.66
2023-04-26T02:43:37.852Z,97.90
2023-04-26T02:44:40.153Z,98.12
2023-04-26T02:45:43.016Z,98.02
2023-04-26T02:46:46.772Z,98.02
2023-04-26T02:47:48.967Z,97.95
2023-04-26T02:48:50.780Z,98.16
2023-04-26T02:49:52.461Z,98.15
2023-04-26T02:50:54.605Z,98.00
2023-04-26T02:51:56.547Z,97.96
2023-04-26T02:52:58.316Z,97.84
2023-04-26T02:54:00.130Z,97.82
2023-04-26T02:55:03.089Z,97.64
2023-04-26T02:56:04.781Z,97.89
2023-04-26T02:57:06.404Z,98.07
2023-04-26T02:58:08.055Z,98.33
2023-04-26T02:59:09.628Z,98.59
2023-04-26T03:00:11.690Z,98.70
2023-04-26T03:01:13.576Z,99.12
2023-04-26T03:02:17.052Z,99.26
2023-04-26T03:03:19.032Z,99.45
2023-04-26T03:04:20.855Z,99.69
2023-04-26T03:05:22.813Z,99.90
2023-04-26T03:06:24.443Z,100.00
2023-04-26T03:07:26.025Z,100.00
2023-04-26T03:08:27.714Z,99.92
2023-04-26T03:09:29.357Z,99.61
2023-04-26T03:10:30.926Z,99.65
2023-04-26T03:11:32.903Z,99.50
2023-04-26T03:12:34.465Z,99.44
2023-04-26T03:13:36.900Z,99.01
2023-04-26T03:14:38.959Z,98.98
2023-04-26T03:15:44.764Z,98.52
2023-04-26T03:16:46.480Z,100.00
2023-04-26T03:17:48.305Z,100.00
2023-04-26T03:18:50.580Z,100.00
2023-04-26T03:19:52.416Z,100.00
2023-04-26T03:20:54.024Z,100.00
2023-04-26T03:21:56.407Z,100.00
2023-04-26T03:22:58.308Z,100.00
2023-04-26T03:24:00.776Z,100.00
2023-04-26T03:25:03.072Z,100.00
2023-04-26T03:26:05.070Z,100.00
2023-04-26T03:27:06.693Z,100.00
2023-04-26T03:28:08.428Z,100.00
2023-04-26T03:29:10.848Z,100.00
2023-04-26T03:30:13.074Z,100.00
2023-04-26T03:31:15.083Z,100.00
2023-04-26T03:32:17.024Z,100.00
2023-04-26T03:33:18.761Z,100.00
2023-04-26T03:34:20.834Z,100.00
2023-04-26T03:35:22.601Z,100.00
2023-04-26T03:36:24.453Z,99.90
2023-04-26T03:37:26.252Z,100.00
2023-04-26T03:38:34.085Z,100.00
2023-04-26T03:39:35.926Z,100.00
2023-04-26T03:40:37.664Z,100.00
2023-04-26T03:41:39.758Z,100.00
2023-04-26T03:42:43.599Z,100.00
2023-04-26T03:43:45.474Z,100.00
2023-04-26T03:44:47.307Z,100.00
2023-04-26T03:45:50.091Z,100.00
2023-04-26T03:46:51.824Z,100.00
2023-04-26T03:47:53.557Z,100.00
2023-04-26T03:48:55.270Z,100.00
2023-04-26T03:49:57.562Z,100.00
2023-04-26T03:51:00.135Z,100.00
2023-04-26T03:52:02.943Z,100.00
2023-04-26T03:53:04.692Z,100.00
2023-04-26T03:54:06.543Z,100.00
2023-04-26T03:55:08.656Z,100.00
2023-04-26T03:56:10.832Z,100.00
2023-04-26T03:57:12.600Z,100.00
2023-04-26T03:58:16.447Z,100.00
2023-04-26T03:59:18.145Z,100.00
2023-04-26T04:00:19.753Z,100.00
2023-04-26T04:01:22.635Z,100.00
2023-04-26T04:02:25.967Z,99.77
2023-04-26T04:03:27.814Z,99.27
2023-04-26T04:04:30.211Z,99.36
2023-04-26T04:05:32.057Z,99.19
2023-04-26T04:06:33.976Z,99.17
2023-04-26T04:07:36.018Z,99.34
2023-04-26T04:08:37.675Z,99.41
2023-04-26T04:09:40.168Z,99.87
2023-04-26T04:10:42.021Z,100.00
2023-04-26T04:11:45.811Z,100.00
2023-04-26T04:12:52.607Z,100.00
2023-04-26T04:13:55.086Z,99.94
2023-04-26T04:14:56.745Z,99.98
2023-04-26T04:16:00.876Z,100.00
2023-04-26T04:17:02.612Z,100.00
2023-04-26T04:18:05.189Z,100.00
2023-04-26T04:19:06.872Z,100.00
2023-04-26T04:20:09.044Z,100.00
2023-04-26T04:21:10.699Z,100.00
2023-04-26T04:22:12.350Z,100.00
2023-04-26T04:23:14.489Z,99.74
2023-04-26T04:24:16.448Z,100.00
2023-04-26T04:25:18.131Z,100.00
2023-04-26T04:26:19.773Z,100.00
2023-04-26T04:27:22.939Z,100.00
2023-04-26T04:28:24.710Z,100.00
2023-04-26T04:29:26.825Z,100.00
2023-04-26T04:30:29.451Z,100.00
2023-04-26T04:31:31.147Z,100.00
2023-04-26T04:32:33.463Z,100.00
2023-04-26T04:33:35.734Z,100.00
2023-04-26T04:34:37.555Z,100.00
2023-04-26T04:35:41.571Z,100.00
2023-04-26T04:36:43.204Z,100.00
2023-04-26T04:37:44.947Z,100.00
2023-04-26T04:38:47.588Z,100.00
2023-04-26T04:39:54.787Z,100.00
2023-04-26T04:40:57.047Z,100.00
2023-04-26T04:41:59.114Z,100.00
2023-04-26T04:43:00.792Z,99.65
2023-04-26T04:44:02.802Z,99.03
2023-04-26T04:45:04.922Z,98.74
2023-04-26T04:46:08.859Z,97.71
2023-04-26T04:47:12.392Z,95.48
2023-04-26T04:48:14.045Z,93.38
2023-04-26T04:49:15.701Z,93.48
2023-04-26T04:50:17.483Z,93.53
2023-04-26T04:51:19.428Z,93.28
2023-04-26T04:52:21.919Z,93.16
2023-04-26T04:54:40.052Z,91.99
2023-04-26T04:55:42.627Z,91.17
2023-04-26T04:56:45.259Z,89.07
2023-04-26T04:57:48.678Z,88.44
2023-04-26T04:58:50.480Z,87.67
2023-04-26T04:59:53.608Z,88.68
2023-04-26T05:00:55.187Z,88.51
2023-04-26T05:09:12.215Z,87.74
2023-04-26T05:10:14.322Z,87.52
2023-04-26T05:20:57.684Z,88.91
2023-04-26T05:22:00.310Z,89.07
2023-04-26T05:30:51.007Z,91.29
2023-04-26T05:32:02.233Z,92.03
2023-04-26T05:33:15.831Z,92.50
2023-04-26T05:34:24.213Z,93.04
2023-04-26T05:35:30.072Z,93.35
2023-04-26T05:36:31.657Z,93.70
2023-04-26T05:37:33.215Z,94.81
2023-04-26T05:38:36.251Z,95.34
2023-04-26T05:39:38.177Z,96.41
2023-04-26T05:40:39.954Z,96.85
2023-04-26T05:41:41.892Z,97.01
2023-04-26T05:42:43.485Z,95.65
2023-04-26T05:43:47.361Z,94.56
2023-04-26T05:44:49.033Z,94.79
2023-04-26T05:45:55.281Z,95.91
2023-04-26T05:46:56.932Z,95.31
2023-04-26T05:49:10.820Z,94.63
2023-04-26T05:50:12.419Z,94.22
2023-04-26T05:51:13.973Z,94.81
2023-04-26T05:52:15.530Z,94.83
2023-04-26T05:53:17.762Z,94.53
2023-04-26T05:54:19.335Z,94.87
2023-04-26T05:55:20.939Z,94.96
2023-04-26T05:56:22.531Z,95.55
2023-04-26T05:57:24.751Z,95.35
2023-04-26T05:58:26.342Z,94.26
2023-04-26T05:59:28.228Z,93.07
2023-04-26T06:00:29.871Z,91.79
2023-04-26T06:01:31.451Z,91.94
2023-04-26T06:02:33.761Z,90.88
2023-04-26T06:03:35.827Z,90.92
2023-04-26T06:04:37.752Z,91.44
2023-04-26T06:05:43.164Z,91.25
2023-04-26T06:06:45.053Z,90.61
2023-04-26T06:07:46.590Z,89.39
2023-04-26T06:08:48.204Z,89.78
2023-04-26T06:09:49.768Z,89.35
2023-04-26T06:14:36.054Z,81.60
2023-04-26T06:17:11.463Z,82.16
2023-04-26T06:19:23.664Z,82.34
2023-04-26T06:20:25.886Z,81.84
2023-04-26T06:24:09.308Z,81.71
2023-04-26T06:25:12.744Z,82.65
2023-04-26T06:27:24.626Z,82.65
2023-04-26T06:28:26.340Z,80.33
2023-04-26T06:29:32.203Z,79.84
2023-04-26T06:30:33.760Z,79.65
2023-04-26T06:31:35.337Z,79.18
2023-04-26T06:36:40.066Z,78.59
2023-04-26T06:39:05.056Z,80.64
2023-04-26T06:41:31.030Z,83.34
2023-04-26T06:42:32.725Z,84.10
2023-04-26T06:43:57.311Z,82.39
2023-04-26T06:45:05.947Z,83.04
2023-04-26T06:46:09.096Z,84.12
2023-04-26T06:47:10.765Z,83.66
2023-04-26T06:48:12.411Z,85.16
2023-04-26T06:49:14.006Z,85.40
2023-04-26T06:50:15.805Z,85.64
2023-04-26T06:51:17.416Z,86.92
2023-04-26T06:52:21.043Z,86.96
2023-04-26T06:53:23.418Z,88.92
2023-04-26T06:54:31.487Z,89.48
2023-04-26T06:55:33.761Z,88.71
2023-04-26T06:56:35.417Z,88.41
2023-04-26T06:57:36.990Z,87.06
2023-04-26T06:58:38.535Z,87.41
2023-04-26T06:59:40.105Z,86.82
2023-04-26T07:00:41.679Z,87.02
2023-04-26T07:01:43.290Z,87.58
2023-04-26T07:02:45.552Z,87.40
2023-04-26T07:03:47.388Z,87.67
2023-04-26T07:04:49.238Z,87.67
2023-04-26T07:05:51.029Z,84.83
2023-04-26T07:06:52.665Z,85.30
2023-04-26T07:07:54.190Z,86.65
2023-04-26T07:08:56.054Z,86.12
2023-04-26T07:09:57.602Z,82.93
2023-04-26T07:10:59.234Z,83.07
2023-04-26T07:12:00.862Z,83.49
2023-04-26T07:13:02.481Z,83.76
2023-04-26T07:14:05.333Z,83.50
2023-04-26T07:15:07.728Z,83.31
2023-04-26T07:16:09.287Z,84.31
2023-04-26T07:17:10.872Z,84.93
2023-04-26T07:18:12.529Z,84.40
2023-04-26T07:19:14.103Z,83.11
2023-04-26T07:20:15.887Z,84.33
2023-04-26T07:21:17.544Z,84.10
2023-04-26T07:22:21.707Z,83.44
2023-04-26T07:23:23.396Z,82.14
2023-04-26T07:24:25.079Z,81.54
2023-04-26T07:25:26.654Z,81.45
2023-04-26T07:26:28.284Z,80.33
2023-04-26T07:27:31.335Z,79.73
2023-04-26T07:28:33.240Z,80.83
2023-04-26T07:29:34.827Z,79.69
2023-04-26T07:32:00.062Z,77.71
2023-04-26T07:33:01.782Z,76.68
2023-04-26T07:34:03.410Z,75.42
2023-04-26T07:35:07.069Z,76.16
2023-04-26T07:36:08.837Z,75.80
2023-04-26T07:37:10.406Z,73.73
2023-04-26T07:38:11.976Z,73.65
2023-04-26T07:39:14.251Z,75.48
2023-04-26T07:40:15.884Z,75.79
2023-04-26T07:41:17.432Z,76.18
2023-04-26T07:42:19.005Z,75.31
2023-04-26T07:43:21.097Z,75.71
2023-04-26T07:44:22.697Z,74.46
2023-04-26T07:45:24.556Z,75.25
2023-04-26T07:46:26.274Z,75.67
2023-04-26T07:47:27.898Z,75.59
2023-04-26T07:48:29.720Z,73.32
2023-04-26T07:49:31.744Z,73.97
2023-04-26T07:54:45.698Z,72.12
2023-04-26T07:55:50.490Z,72.57
2023-04-26T07:56:52.055Z,72.97
2023-04-26T08:06:31.690Z,70.62
2023-04-26T08:07:33.570Z,70.57
2023-04-26T08:08:35.810Z,71.03
2023-04-26T08:09:37.416Z,72.39
2023-04-26T08:10:40.949Z,73.11
2023-04-26T08:11:42.606Z,71.22
2023-04-26T08:12:44.505Z,68.29
2023-04-26T08:17:44.877Z,69.06
2023-04-26T08:18:47.119Z,68.39
2023-04-26T08:22:16.384Z,69.84
2023-04-26T08:32:37.108Z,70.44
2023-04-26T08:33:38.708Z,70.68
2023-04-26T08:34:40.821Z,68.30
2023-04-26T08:37:09.828Z,64.62
2023-04-26T08:38:11.797Z,63.26
2023-04-26T08:39:13.386Z,61.88
2023-04-26T08:41:37.486Z,59.71
2023-04-26T08:45:46.523Z,65.28
2023-04-26T08:47:03.627Z,65.76
2023-04-26T08:48:13.085Z,63.52
2023-04-26T08:49:14.585Z,63.87
2023-04-26T08:51:41.016Z,61.30
2023-04-26T08:52:44.113Z,59.42
2023-04-26T09:04:50.723Z,63.06
2023-04-26T09:12:42.112Z,63.42
2023-04-26T09:13:43.693Z,60.63
2023-04-26T09:32:09.139Z,57.62
2023-04-26T09:37:01.271Z,59.01
2023-04-26T09:46:22.721Z,58.61
2023-04-26T09:47:24.363Z,58.28
2023-04-26T09:59:49.807Z,54.84
2023-04-26T10:00:51.984Z,58.74
2023-04-26T10:01:53.681Z,57.53
2023-04-26T10:04:19.312Z,56.56
2023-04-26T10:05:21.993Z,56.93
2023-04-26T10:06:24.234Z,57.08
2023-04-26T10:07:26.146Z,57.37
2023-04-26T10:08:27.751Z,56.00
2023-04-26T10:09:29.363Z,54.63
2023-04-26T10:10:31.144Z,54.21
2023-04-26T10:11:35.400Z,52.99
2023-04-26T10:12:37.408Z,51.83
2023-04-26T10:13:40.149Z,52.04
2023-04-26T10:14:43.278Z,51.65
2023-04-26T10:15:47.373Z,51.83
2023-04-26T10:16:49.667Z,53.86
2023-04-26T10:17:52.188Z,54.42
2023-04-26T10:18:53.960Z,55.80
2023-04-26T10:19:58.975Z,55.49
2023-04-26T10:21:06.391Z,54.46
2023-04-26T10:22:28.567Z,54.82
2023-04-26T10:23:31.179Z,58.07
2023-04-26T10:24:34.738Z,58.24
2023-04-26T10:25:38.527Z,56.08
2023-04-26T10:26:54.227Z,55.58
2023-04-26T10:27:55.785Z,57.03
2023-04-26T10:29:02.134Z,56.16
2023-04-26T10:30:08.444Z,55.16
2023-04-26T10:31:10.050Z,52.67
2023-04-26T10:32:11.775Z,52.23
2023-04-26T10:33:13.725Z,54.38
2023-04-26T10:34:19.449Z,51.80
2023-04-26T10:35:22.381Z,51.29
2023-04-26T10:36:23.974Z,51.24
2023-04-26T10:37:25.559Z,50.71
2023-04-26T10:38:27.280Z,50.86
2023-04-26T10:39:28.824Z,50.92
2023-04-26T10:40:42.983Z,50.80
2023-04-26T10:41:44.599Z,50.08
2023-04-26T10:42:46.177Z,50.87
2023-04-26T10:43:47.770Z,49.88
2023-04-26T10:44:52.518Z,50.09
2023-04-26T10:45:54.323Z,49.68
2023-04-26T10:46:55.887Z,49.83
2023-04-26T10:50:17.874Z,52.72
2023-04-26T10:51:19.444Z,51.66
2023-04-26T10:52:21.076Z,50.61
2023-04-26T10:53:22.655Z,51.49
2023-04-26T10:54:24.231Z,53.84
2023-04-26T10:55:42.491Z,54.49
2023-04-26T10:56:46.982Z,56.06
2023-04-26T10:57:56.625Z,55.41
2023-04-26T10:59:28.425Z,55.55
2023-04-26T11:03:18.211Z,53.01
2023-04-26T11:04:20.025Z,52.33
2023-04-26T11:05:53.899Z,53.73
2023-04-26T11:06:56.066Z,55.52
2023-04-26T11:12:22.199Z,53.74
2023-04-26T11:13:23.835Z,53.24
2023-04-26T11:14:26.287Z,54.53
2023-04-26T11:15:28.739Z,53.88
2023-04-26T11:16:30.340Z,52.60
2023-04-26T11:17:37.253Z,52.33
2023-04-26T11:18:40.904Z,52.35
2023-04-26T11:19:42.662Z,53.33
2023-04-26T11:20:44.817Z,52.50
2023-04-26T11:21:46.433Z,53.47
2023-04-26T11:22:47.996Z,53.06
2023-04-26T11:23:53.643Z,53.39
2023-04-26T11:26:09.079Z,55.62
2023-04-26T11:27:13.404Z,55.62
2023-04-26T11:28:15.522Z,55.03
2023-04-26T11:29:20.635Z,53.92
2023-04-26T11:30:22.286Z,53.27
2023-04-26T11:31:23.895Z,52.28
2023-04-26T11:32:26.640Z,49.73
2023-04-26T11:33:28.230Z,50.16
2023-04-26T11:34:33.724Z,50.56
2023-04-26T11:35:36.010Z,51.12
2023-04-26T11:36:38.579Z,50.98
2023-04-26T11:37:40.440Z,51.62
2023-04-26T11:38:42.193Z,50.52
2023-04-26T11:39:45.165Z,50.77
2023-04-26T11:40:57.694Z,52.38
2023-04-26T11:42:13.194Z,50.17
2023-04-26T11:43:14.768Z,52.00
2023-04-26T11:44:19.906Z,52.65
2023-04-26T11:45:21.513Z,52.69
2023-04-26T11:46:24.081Z,53.29
2023-04-26T11:47:25.816Z,51.71
2023-04-26T11:48:28.577Z,53.26
2023-04-26T11:49:31.308Z,53.51
2023-04-26T11:50:34.236Z,55.59
2023-04-26T11:51:36.461Z,54.11
2023-04-26T11:52:38.574Z,51.44
2023-04-26T11:53:42.074Z,53.20
2023-04-26T11:54:43.672Z,55.09
2023-04-26T11:55:45.350Z,51.90
2023-04-26T11:56:47.050Z,53.24
2023-04-26T11:57:48.628Z,51.52
2023-04-26T11:58:51.829Z,50.85
2023-04-26T11:59:53.692Z,51.00
2023-04-26T12:00:55.908Z,48.57
2023-04-26T12:01:58.264Z,50.37
2023-04-26T12:03:05.885Z,49.27
2023-04-26T12:04:10.207Z,48.90
2023-04-26T12:05:28.816Z,51.59
2023-04-26T12:06:50.690Z,51.56
2023-04-26T12:07:53.634Z,51.55
2023-04-26T12:08:56.668Z,52.73
2023-04-26T12:10:08.045Z,53.60
2023-04-26T12:11:09.598Z,52.69
2023-04-26T12:12:11.343Z,53.12
2023-04-26T12:13:13.841Z,54.80
2023-04-26T12:14:16.452Z,52.27
2023-04-26T12:15:19.506Z,53.92
2023-04-26T12:16:26.820Z,54.12
2023-04-26T12:17:29.170Z,52.34
2023-04-26T12:18:32.193Z,52.75
2023-04-26T12:19:37.289Z,52.04
2023-04-26T12:20:43.721Z,52.26
2023-04-26T12:21:45.280Z,52.67
2023-04-26T12:23:00.364Z,52.65
2023-04-26T12:24:01.951Z,52.87
2023-04-26T12:25:07.496Z,53.14
2023-04-26T12:26:09.130Z,53.50
2023-04-26T12:27:20.793Z,52.62
2023-04-26T12:28:23.173Z,52.39
2023-04-26T12:29:24.844Z,53.13
2023-04-26T12:30:28.835Z,54.40
2023-04-26T12:31:39.397Z,53.50
2023-04-26T12:32:40.989Z,52.19
2023-04-26T12:33:42.624Z,54.11
2023-04-26T12:34:44.227Z,53.78
2023-04-26T12:35:46.489Z,54.09
2023-04-26T12:36:48.092Z,54.62
2023-04-26T12:37:49.972Z,54.94
2023-04-26T12:38:52.080Z,53.16
2023-04-26T12:39:53.632Z,51.29
2023-04-26T12:40:55.328Z,50.38
2023-04-26T12:41:56.856Z,50.10
2023-04-26T12:42:58.945Z,51.33
2023-04-26T12:44:00.696Z,51.07
2023-04-26T12:45:02.398Z,52.99
2023-04-26T12:46:04.123Z,51.57
2023-04-26T12:47:05.781Z,51.95
2023-04-26T12:48:07.966Z,51.76
2023-04-26T12:49:09.544Z,51.66
2023-04-26T12:50:11.735Z,51.47
2023-04-26T12:51:13.301Z,52.25
2023-04-26T12:52:14.861Z,50.42
2023-04-26T12:53:16.515Z,50.08
2023-04-26T12:54:18.121Z,50.34
2023-04-26T12:55:20.051Z,50.90
2023-04-26T12:56:21.733Z,51.77
2023-04-26T12:57:23.376Z,51.49
2023-04-26T12:58:24.991Z,52.44
2023-04-26T12:59:26.554Z,50.53
2023-04-26T13:00:28.309Z,49.40
2023-04-26T13:01:29.890Z,49.25
2023-04-26T13:02:31.863Z,47.81
2023-04-26T13:03:33.744Z,48.22
2023-04-26T13:04:39.210Z,48.52
2023-04-26T13:05:42.437Z,47.56
2023-04-26T13:06:44.024Z,47.46
2023-04-26T13:07:46.032Z,47.17
2023-04-26T13:08:47.575Z,49.53
2023-04-26T13:09:49.176Z,51.86
2023-04-26T13:10:50.717Z,54.28
2023-04-26T13:11:52.333Z,53.63
2023-04-26T13:12:53.892Z,53.16
2023-04-26T13:13:55.516Z,53.52
2023-04-26T13:16:33.712Z,53.64
2023-04-26T13:17:37.461Z,52.80
2023-04-26T13:34:52.116Z,49.39
2023-04-26T13:35:53.759Z,49.04
2023-04-26T13:36:56.306Z,50.41
2023-04-26T13:37:57.967Z,48.35
2023-04-26T13:38:59.548Z,49.19
2023-04-26T13:40:01.118Z,50.01
2023-04-26T13:41:02.792Z,50.16
2023-04-26T13:42:04.463Z,50.38
2023-04-26T13:43:06.021Z,51.50
2023-04-26T13:44:07.594Z,50.74
2023-04-26T13:45:11.174Z,52.00
2023-04-26T13:46:12.806Z,52.12
2023-04-26T13:47:14.425Z,51.87
2023-04-26T13:48:16.152Z,51.96
2023-04-26T13:49:17.972Z,52.51
2023-04-26T13:51:29.790Z,52.79
2023-04-26T13:52:31.623Z,53.74
2023-04-26T13:53:35.657Z,53.97
2023-04-26T13:54:37.563Z,53.75
2023-04-26T13:55:39.240Z,53.36
2023-04-26T13:57:57.021Z,51.45
2023-04-26T13:58:58.993Z,50.72
2023-04-26T14:01:10.927Z,51.44
2023-04-26T14:02:15.801Z,51.86
2023-04-26T14:03:19.210Z,52.08
2023-04-26T14:04:21.274Z,52.53
2023-04-26T14:05:23.514Z,52.58
2023-04-26T14:06:25.408Z,53.30
2023-04-26T14:07:26.989Z,53.27
2023-04-26T14:08:28.926Z,52.58
2023-04-26T14:09:30.539Z,53.92
2023-04-26T14:10:32.509Z,51.53
2023-04-26T14:11:34.142Z,50.54
2023-04-26T14:12:35.809Z,50.74
2023-04-26T14:13:37.622Z,50.28
2023-04-26T14:15:43.294Z,49.75
2023-04-26T14:16:44.899Z,49.73
2023-04-26T14:17:46.490Z,49.51
2023-04-26T14:18:48.065Z,48.69
2023-04-26T14:19:49.622Z,50.50
2023-04-26T14:20:51.309Z,50.29
2023-04-26T14:21:52.870Z,50.09
2023-04-26T14:22:54.416Z,51.16
2023-04-26T14:23:55.947Z,50.37
2023-04-26T14:24:57.475Z,50.25
2023-04-26T14:25:59.024Z,50.20
2023-04-26T14:27:01.534Z,50.41
2023-04-26T14:28:03.114Z,50.32
2023-04-26T14:29:04.694Z,50.43
2023-04-26T14:30:07.342Z,51.12
2023-04-26T14:31:08.953Z,51.19
2023-04-26T14:32:10.544Z,53.08
2023-04-26T14:33:12.757Z,54.29
2023-04-26T14:34:14.381Z,54.41
2023-04-26T14:35:15.958Z,54.51
2023-04-26T14:36:17.830Z,55.56
2023-04-26T14:37:19.404Z,55.62
2023-04-26T14:38:21.005Z,57.18
2023-04-26T14:39:24.593Z,58.08
2023-04-26T14:40:26.456Z,56.21
2023-04-26T14:41:28.067Z,54.01
2023-04-26T14:42:29.732Z,53.68
2023-04-26T14:43:31.323Z,54.58
2023-04-26T14:44:33.045Z,53.98
2023-04-26T14:45:43.945Z,54.60
2023-04-26T14:46:46.622Z,54.11
2023-04-26T14:47:48.345Z,53.41
2023-04-26T14:48:50.679Z,53.93
2023-04-26T14:49:52.288Z,51.63
2023-04-26T14:51:00.553Z,51.96
2023-04-26T14:52:02.511Z,51.46
2023-04-26T14:54:40.309Z,53.59
2023-04-26T14:55:41.895Z,53.60
2023-04-26T14:56:43.689Z,54.13
2023-04-26T14:57:45.309Z,54.45
2023-04-26T14:58:47.187Z,55.81
2023-04-26T14:59:48.765Z,55.75
2023-04-26T15:00:51.141Z,54.15
2023-04-26T15:01:52.809Z,54.51
2023-04-26T15:02:54.616Z,53.02
2023-04-26T15:03:59.341Z,52.22
2023-04-26T15:05:01.985Z,51.82
2023-04-26T15:06:03.955Z,51.94
2023-04-26T15:07:05.529Z,51.91
2023-04-26T15:08:07.048Z,51.73
2023-04-26T15:09:08.677Z,52.30
2023-04-26T15:10:10.401Z,52.28
2023-04-26T15:11:12.236Z,52.11
2023-04-26T15:13:33.875Z,51.58
2023-04-26T15:14:35.506Z,51.87
2023-04-26T15:15:37.092Z,51.25
2023-04-26T15:16:38.906Z,50.31
2023-04-26T15:17:40.837Z,51.01
2023-04-26T15:18:42.669Z,50.58
2023-04-26T15:19:44.394Z,50.51
2023-04-26T15:20:46.087Z,51.35
2023-04-26T15:21:47.698Z,52.92
2023-04-26T15:22:49.272Z,51.92
2023-04-26T15:23:50.935Z,52.41
2023-04-26T15:24:52.790Z,53.09
2023-04-26T15:25:54.392Z,52.96
2023-04-26T15:26:56.015Z,53.38
2023-04-26T15:27:57.578Z,54.54
2023-04-26T15:28:59.300Z,55.15
2023-04-26T15:30:01.578Z,53.68
2023-04-26T15:31:04.690Z,53.52
2023-04-26T15:32:06.263Z,53.23
2023-04-26T15:33:07.975Z,53.96
2023-04-26T15:34:09.871Z,53.82
2023-04-26T15:35:13.211Z,54.66
2023-04-26T15:36:14.777Z,55.22
2023-04-26T15:37:16.720Z,55.37
2023-04-26T15:38:18.424Z,55.16
2023-04-26T15:39:20.391Z,54.96
2023-04-26T15:47:16.464Z,55.83
2023-04-26T15:50:32.253Z,57.07
2023-04-26T15:54:21.229Z,55.47
2023-04-26T16:00:20.967Z,56.15
2023-04-26T16:01:23.138Z,57.04
2023-04-26T16:05:05.851Z,58.24
2023-04-26T16:06:07.662Z,57.65
2023-04-26T16:18:07.390Z,56.14
2023-04-26T16:24:13.011Z,57.96
2023-04-26T16:25:15.628Z,59.09
2023-04-26T16:34:35.519Z,63.98
2023-04-26T16:35:37.435Z,62.17
2023-04-26T16:36:39.033Z,62.61
2023-04-26T16:37:40.775Z,62.70
2023-04-26T16:38:42.328Z,62.06
2023-04-26T16:39:43.865Z,62.64
2023-04-26T17:12:37.140Z,62.69
2023-04-26T17:13:39.446Z,63.08
2023-04-26T17:15:51.597Z,64.33
2023-04-26T20:58:54.261Z,87.95
2023-04-26T20:59:56.053Z,88.12
2023-04-26T21:00:57.715Z,88.52
2023-04-26T21:01:59.374Z,88.85
2023-04-26T21:03:01.211Z,88.87
2023-04-26T21:04:03.267Z,88.72
2023-04-26T21:05:06.185Z,88.73
2023-04-26T21:06:07.750Z,88.75
2023-04-26T21:07:10.313Z,88.57
2023-04-26T21:08:11.917Z,88.30
2023-04-26T21:09:13.525Z,88.25
2023-04-26T21:10:15.211Z,88.77
2023-04-26T21:11:16.825Z,88.52
2023-04-26T21:12:18.371Z,88.21
2023-04-26T21:13:19.918Z,88.19
2023-04-26T21:14:21.517Z,88.12
2023-04-26T21:15:23.134Z,87.86
2023-04-26T21:16:24.944Z,88.33
2023-04-26T21:17:29.294Z,88.65
2023-04-26T21:18:30.915Z,88.75
2023-04-26T21:19:32.618Z,88.76
2023-04-26T21:20:34.188Z,88.43
2023-04-26T21:21:35.806Z,88.71